createdAt,value
2022-07-25T00:02:42.247Z,15.95
2022-07-25T00:07:53.055Z,15.91
2022-07-25T00:13:01.555Z,15.86
2022-07-25T00:18:09.856Z,15.82
2022-07-25T00:23:17.745Z,15.77
2022-07-25T00:28:25.871Z,15.72
2022-07-25T00:33:34.053Z,15.68
2022-07-25T00:38:42.130Z,15.65
2022-07-25T00:43:50.479Z,15.63
2022-07-25T00:48:58.738Z,15.61
2022-07-25T00:54:07.366Z,15.60
2022-07-25T00:59:17.033Z,15.59
2022-07-25T01:04:25.681Z,15.57
2022-07-25T01:09:34.626Z,15.55
2022-07-25T01:14:43.089Z,15.53
2022-07-25T01:19:51.793Z,15.51
2022-07-25T01:24:59.928Z,15.49
2022-07-25T01:30:10.076Z,15.47
2022-07-25T01:35:19.005Z,15.46
2022-07-25T01:40:27.310Z,15.45
2022-07-25T01:45:35.732Z,15.45
2022-07-25T01:50:43.949Z,15.43
2022-07-25T01:55:52.195Z,15.41
2022-07-25T02:01:00.806Z,15.38
2022-07-25T02:06:10.247Z,15.33
2022-07-25T02:11:18.349Z,15.28
2022-07-25T02:16:29.061Z,15.23
2022-07-25T02:21:39.020Z,15.16
2022-07-25T02:26:47.061Z,15.09
2022-07-25T02:31:55.142Z,15.02
2022-07-25T02:37:03.254Z,14.95
2022-07-25T02:42:11.569Z,14.88
2022-07-25T02:47:19.747Z,14.81
2022-07-25T02:52:27.797Z,14.74
2022-07-25T02:57:36.125Z,14.68
2022-07-25T03:02:44.251Z,14.63
2022-07-25T03:07:52.650Z,14.58
2022-07-25T03:13:00.728Z,14.53
2022-07-25T03:18:08.619Z,14.48
2022-07-25T03:23:16.687Z,14.44
2022-07-25T03:28:25.153Z,14.37
2022-07-25T03:33:33.321Z,14.29
2022-07-25T03:38:41.635Z,14.24
2022-07-25T03:43:49.628Z,14.22
2022-07-25T03:48:57.772Z,14.23
2022-07-25T03:54:07.219Z,14.27
2022-07-25T03:59:17.241Z,14.35
2022-07-25T04:04:25.666Z,14.48
2022-07-25T04:09:33.802Z,14.64
2022-07-25T04:14:43.255Z,14.85
2022-07-25T04:19:51.788Z,15.04
2022-07-25T04:25:00.123Z,15.23
2022-07-25T04:30:09.297Z,15.39
2022-07-25T04:35:17.218Z,15.54
2022-07-25T04:40:25.372Z,15.69
2022-07-25T04:45:33.721Z,15.88
2022-07-25T04:50:41.944Z,16.10
2022-07-25T04:55:50.480Z,16.35
2022-07-25T05:00:59.075Z,16.62
2022-07-25T05:06:07.359Z,16.90
2022-07-25T05:11:15.884Z,17.18
2022-07-25T05:16:23.927Z,17.45
2022-07-25T05:21:32.157Z,17.74
2022-07-25T05:26:40.259Z,18.03
2022-07-25T05:31:48.359Z,18.33
2022-07-25T05:36:56.991Z,18.63
2022-07-25T05:42:04.382Z,18.96
2022-07-25T05:47:15.212Z,19.27
2022-07-25T05:52:22.396Z,19.56
2022-07-25T05:57:30.970Z,19.85
2022-07-25T06:02:39.748Z,20.13
2022-07-25T06:07:48.172Z,20.40
2022-07-25T06:12:56.239Z,20.62
2022-07-25T06:18:04.766Z,20.76
2022-07-25T06:23:13.191Z,20.84
2022-07-25T06:28:22.257Z,20.90
2022-07-25T06:33:30.366Z,20.95
2022-07-25T06:38:39.160Z,20.98
2022-07-25T06:43:46.449Z,21.03
2022-07-25T06:48:54.316Z,21.09
2022-07-25T06:54:03.277Z,21.16
2022-07-25T06:59:12.408Z,21.24
2022-07-25T07:04:22.719Z,21.30
2022-07-25T07:09:31.613Z,21.35
2022-07-25T07:14:40.164Z,21.39
2022-07-25T07:19:48.217Z,21.43
2022-07-25T07:24:56.827Z,21.48
2022-07-25T07:30:05.777Z,21.53
2022-07-25T07:35:19.722Z,21.63
2022-07-25T07:40:28.457Z,21.82
2022-07-25T07:45:37.715Z,22.09
2022-07-25T07:50:46.180Z,22.38
2022-07-25T07:55:57.015Z,22.62
2022-07-25T08:01:05.372Z,22.80
2022-07-25T08:06:13.682Z,22.93
2022-07-25T08:11:22.014Z,23.02
2022-07-25T08:16:30.358Z,23.08
2022-07-25T08:21:39.982Z,23.16
2022-07-25T08:26:49.458Z,23.23
2022-07-25T08:31:57.490Z,23.30
2022-07-25T08:37:06.136Z,23.34
2022-07-25T08:42:15.053Z,23.38
2022-07-25T08:47:23.679Z,23.41
2022-07-25T08:52:35.930Z,23.44
2022-07-25T08:57:45.374Z,23.46
2022-07-25T09:02:59.535Z,23.48
2022-07-25T09:08:12.814Z,23.48
2022-07-25T09:13:21.657Z,23.50
2022-07-25T09:18:34.063Z,23.53
2022-07-25T09:23:42.640Z,23.57
2022-07-25T09:28:55.083Z,23.62
2022-07-25T09:34:09.803Z,23.68
2022-07-25T09:39:18.373Z,23.75
2022-07-25T09:44:31.315Z,23.82
2022-07-25T09:49:45.858Z,23.88
2022-07-25T09:54:55.716Z,23.95
2022-07-25T10:00:06.598Z,24.01
2022-07-25T10:05:32.240Z,24.08
2022-07-25T10:10:44.049Z,24.15
2022-07-25T10:15:53.941Z,24.22
2022-07-25T10:21:26.193Z,24.30
2022-07-25T10:26:39.741Z,24.40
2022-07-25T10:31:51.520Z,24.49
2022-07-25T10:37:00.209Z,24.58
2022-07-25T10:42:14.434Z,24.66
2022-07-25T10:47:28.351Z,24.74
2022-07-25T10:52:42.834Z,24.82
2022-07-25T10:58:17.174Z,24.91
2022-07-25T11:03:35.193Z,25.01
2022-07-25T11:08:43.830Z,25.10
2022-07-25T11:13:52.210Z,25.19
2022-07-25T11:19:01.094Z,25.28
2022-07-25T11:24:09.957Z,25.37
2022-07-25T11:29:27.320Z,25.45
2022-07-25T11:34:38.904Z,25.54
2022-07-25T11:39:49.864Z,25.63
2022-07-25T11:44:58.045Z,25.71
2022-07-25T11:50:11.678Z,25.79
2022-07-25T11:55:30.279Z,25.88
2022-07-25T12:00:44.351Z,25.97
2022-07-25T12:05:53.627Z,26.04
2022-07-25T12:11:01.730Z,26.13
2022-07-25T12:16:10.179Z,26.20
2022-07-25T12:21:18.287Z,26.27
2022-07-25T12:26:26.479Z,26.34
2022-07-25T12:31:33.820Z,26.40
2022-07-25T12:36:45.489Z,26.46
2022-07-25T12:41:53.571Z,26.51
2022-07-25T12:47:02.385Z,26.55
2022-07-25T12:52:10.686Z,26.59
2022-07-25T12:57:21.221Z,26.63
2022-07-25T13:02:29.546Z,26.69
2022-07-25T13:07:38.312Z,26.75
2022-07-25T13:12:47.579Z,26.81
2022-07-25T13:17:55.769Z,26.87
2022-07-25T13:23:04.402Z,26.95
2022-07-25T13:28:13.041Z,27.02
2022-07-25T13:33:21.787Z,27.10
2022-07-25T13:38:29.745Z,27.16
2022-07-25T13:43:39.042Z,27.23
2022-07-25T13:48:48.017Z,27.30
2022-07-25T13:53:56.248Z,27.37
2022-07-25T13:59:06.360Z,27.41
2022-07-25T14:04:16.130Z,27.48
2022-07-25T14:09:24.575Z,27.55
2022-07-25T14:14:33.074Z,27.62
2022-07-25T14:19:41.135Z,27.70
2022-07-25T14:24:49.562Z,27.76
2022-07-25T14:29:58.223Z,27.80
2022-07-25T14:35:07.414Z,27.83
2022-07-25T14:40:18.206Z,27.86
2022-07-25T14:45:26.571Z,27.91
2022-07-25T14:50:33.649Z,27.94
2022-07-25T14:55:42.745Z,27.96
2022-07-25T15:00:51.486Z,27.97
2022-07-25T15:05:59.778Z,27.96
2022-07-25T15:11:08.818Z,27.96
2022-07-25T15:16:18.941Z,27.96
2022-07-25T15:21:27.062Z,27.97
2022-07-25T15:26:36.149Z,27.96
2022-07-25T15:31:44.565Z,27.96
2022-07-25T15:36:52.806Z,27.94
2022-07-25T15:42:01.492Z,27.93
2022-07-25T15:47:10.176Z,27.92
2022-07-25T15:52:18.399Z,27.90
2022-07-25T15:57:26.509Z,27.89
2022-07-25T16:02:35.297Z,27.87
2022-07-25T16:07:44.127Z,27.86
2022-07-25T16:12:52.790Z,27.85
2022-07-25T16:18:02.916Z,27.84
2022-07-25T16:23:11.350Z,27.85
2022-07-25T16:28:20.464Z,27.83
2022-07-25T16:33:29.292Z,27.83
2022-07-25T16:38:37.978Z,27.81
2022-07-25T16:43:47.320Z,27.78
2022-07-25T16:48:55.901Z,27.75
2022-07-25T16:54:04.336Z,27.71
2022-07-25T16:59:12.816Z,27.68
2022-07-25T17:04:21.449Z,27.64
2022-07-25T17:09:30.040Z,27.60
2022-07-25T17:14:38.468Z,27.56
2022-07-25T17:19:46.790Z,27.52
2022-07-25T17:24:55.339Z,27.47
2022-07-25T17:30:05.759Z,27.43
2022-07-25T17:35:13.029Z,27.38
2022-07-25T17:40:21.867Z,27.32
2022-07-25T17:45:30.035Z,27.27
2022-07-25T17:50:38.044Z,27.21
2022-07-25T17:55:48.148Z,27.15
2022-07-25T18:01:01.000Z,27.07
2022-07-25T18:06:12.048Z,26.99
2022-07-25T18:11:20.535Z,26.92
2022-07-25T18:16:28.728Z,26.83
2022-07-25T18:21:37.028Z,26.74
2022-07-25T18:26:45.630Z,26.64
2022-07-25T18:31:53.843Z,26.54
2022-07-25T18:37:03.248Z,26.43
2022-07-25T18:42:11.622Z,26.32
2022-07-25T18:47:25.353Z,26.19
2022-07-25T18:52:36.886Z,26.05
2022-07-25T18:57:46.160Z,25.90
2022-07-25T19:02:53.407Z,25.75
2022-07-25T19:08:02.510Z,25.60
2022-07-25T19:13:26.730Z,25.44
2022-07-25T19:18:41.172Z,25.26
2022-07-25T19:23:51.395Z,25.09
2022-07-25T19:29:00.245Z,24.92
2022-07-25T19:34:09.243Z,24.77
2022-07-25T19:39:19.167Z,24.62
2022-07-25T19:44:29.734Z,24.49
2022-07-25T19:49:39.871Z,24.38
2022-07-25T19:54:48.223Z,24.27
2022-07-25T19:59:56.881Z,24.18
2022-07-25T20:05:06.313Z,24.10
2022-07-25T20:10:17.996Z,24.03
2022-07-25T20:15:27.922Z,23.95
2022-07-25T20:20:36.129Z,23.89
2022-07-25T20:25:44.794Z,23.83
2022-07-25T20:30:53.575Z,23.77
2022-07-25T20:36:02.523Z,23.70
2022-07-25T20:41:12.267Z,23.64
2022-07-25T20:46:21.222Z,23.57
2022-07-25T20:51:30.401Z,23.49
2022-07-25T20:56:39.340Z,23.38
2022-07-25T21:01:48.734Z,23.29
2022-07-25T21:06:58.110Z,23.18
2022-07-25T21:12:08.122Z,23.07
2022-07-25T21:17:16.389Z,22.96
2022-07-25T21:22:24.581Z,22.85
2022-07-25T21:27:32.546Z,22.73
2022-07-25T21:32:41.387Z,22.63
2022-07-25T21:37:50.293Z,22.52
2022-07-25T21:42:59.549Z,22.41
2022-07-25T21:48:08.883Z,22.29
2022-07-25T21:53:18.389Z,22.18
2022-07-25T21:58:27.229Z,22.06
2022-07-25T22:03:36.179Z,21.94
2022-07-25T22:08:45.145Z,21.82
2022-07-25T22:13:53.549Z,21.71
2022-07-25T22:19:01.500Z,21.59
2022-07-25T22:24:10.750Z,21.47
2022-07-25T22:29:19.350Z,21.36
2022-07-25T22:34:27.707Z,21.27
2022-07-25T22:39:36.748Z,21.19
2022-07-25T22:44:45.556Z,21.11
2022-07-25T22:49:52.957Z,21.06
2022-07-25T22:55:01.062Z,21.00
2022-07-25T23:00:12.905Z,20.96
2022-07-25T23:05:20.837Z,20.91
2022-07-25T23:10:29.062Z,20.86
2022-07-25T23:15:50.320Z,20.83
2022-07-25T23:21:00.734Z,20.79
2022-07-25T23:26:08.839Z,20.75
2022-07-25T23:31:16.730Z,20.72
2022-07-25T23:36:24.888Z,20.69
2022-07-25T23:41:33.040Z,20.66
2022-07-25T23:46:42.752Z,20.63
2022-07-25T23:51:52.765Z,20.61
2022-07-25T23:57:00.547Z,20.58
